Data for 06/02/2010

Time Sea-Level Adjusted Pressure Absolute Pressure Temperature Relative Humidity Dew Point   
(mb) (inHg) (mb) (inHg) (C) (F) (%) (C) (F)
00:05 1016 30 845 24.95 7.7 45.9 84 5.2 41.4
00:10 1016 30 845 24.95 7.6 45.8 86 5.4 41.7
00:15 1016 30 845 24.95 7.6 45.7 86 5.3 41.6
00:20 1016 30 845 24.95 7.5 45.5 86 5.4 41.7
00:25 1016 30 845 24.95 7.4 45.3 87 5.3 41.6
00:30 1016 30 845 24.95 7.3 45.2 87 5.2 41.4
00:35 1016 30 845 24.95 7.3 45.1 87 5.2 41.4
00:40 1016 30 845 24.95 7.3 45.2 87 5.2 41.4
00:45 1016 30 845 24.95 7.3 45.2 86 5.2 41.4
00:50 1016 30 845 24.95 7.4 45.2 87 5.3 41.5
00:55 1016 30 845 24.95 7.4 45.2 87 5.3 41.5
01:00 1016 30 845 24.95 7.4 45.3 86 5.2 41.4
01:05 1016 30 845 24.95 7.4 45.2 88 5.4 41.8
01:10 1016 30 845 24.95 7.3 45.1 87 5.3 41.5
01:15 1016 30 845 24.95 7.3 45.1 88 5.5 41.9
01:20 1016 30 845 24.95 7.1 44.8 89 5.4 41.8
01:25 1016 30 845 24.95 7.1 44.7 89 5.4 41.7
01:30 1016 30 845 24.95 7.1 44.7 89 5.4 41.6
01:35 1016 30 845 24.95 7.2 44.9 87 5.1 41.1
01:40 1016 30 845 24.95 7.4 45.3 86 5.1 41.3
01:45 1015 29.97 845 24.95 7.5 45.6 84 5.1 41.2
01:50 1016 30 845 24.95 7.7 45.9 86 5.5 41.9
01:55 1016 30 845 24.95 7.8 46 86 5.5 41.9
02:00 1016 30 845 24.95 7.7 45.8 85 5.2 41.4
02:05 1016 30 845 24.95 7.6 45.6 86 5.4 41.7
02:10 1016 30 845 24.95 7.5 45.5 88 5.6 42
02:15 1016 30 845 24.95 7.4 45.2 88 5.6 42
02:20 1016 30 845 24.95 7.3 45.1 89 5.6 42.1
02:25 1016 30 845 24.95 7.2 45 90 5.7 42.2
02:30 1016 30 845 24.95 7.2 45 90 5.7 42.2
02:35 1016 30 845 24.95 7.3 45.1 90 5.7 42.3
02:40 1016 30 845 24.95 7.3 45.1 89 5.6 42
02:45 1016 30 845 24.95 7.3 45.2 90 5.7 42.3
02:50 1016 30 845 24.95 7.3 45.2 89 5.7 42.2
02:55 1016 30 845 24.95 7.3 45.1 90 5.8 42.4
03:00 1016 30 845 24.95 7.3 45.2 90 5.9 42.6
03:05 1016 30 845 24.95 7.4 45.2 90 5.8 42.4
03:10 1016 30 845 24.95 7.4 45.4 89 5.7 42.3
03:15 1016 30 845 24.95 7.5 45.5 91 6.1 42.9
03:20 1016 30 845 24.95 7.4 45.3 91 6.1 42.9
03:25 1016 30 845 24.95 7.3 45.1 92 6.1 43
03:30 1016 30 845 24.95 7.2 45 92 6 42.9
03:35 1016 30 845 24.95 7.2 45 92 6 42.8
03:40 1016 30 845 24.95 7.2 45 92 6.1 42.9
03:45 1016 30 845 24.95 7.2 45 92 6 42.7
03:50 1016 30 845 24.95 7.2 45 92 6 42.8
03:55 1016 30 845 24.95 7.3 45.1 92 6 42.8
04:00 1016 30 845 24.95 7.3 45.1 92 6 42.8
04:05 1016 30 845 24.95 7.3 45.1 91 5.9 42.7
04:10 1016 30 845 24.95 7.4 45.2 91 6 42.7
04:15 1016 30 845 24.95 7.4 45.3 90 5.9 42.7
04:20 1016 30 845 24.95 7.4 45.3 91 6 42.9
04:25 1016 30 845 24.95 7.4 45.2 91 6 42.7
04:30 1016 30 845 24.95 7.5 45.4 91 6 42.9
04:35 1016 30 845 24.95 7.5 45.5 91 6.1 42.9
04:40 1016 30 845 24.95 7.6 45.6 91 6.2 43.1
04:45 1016 30 845 24.95 7.7 45.9 90 6.2 43.2
04:50 1016 30 845 24.95 7.8 46 90 6.2 43.2
04:55 1016 30 845 24.95 7.7 45.8 91 6.2 43.2
05:00 1016 30 845 24.95 7.5 45.6 92 6.3 43.4
05:05 1016 30 845 24.95 7.4 45.4 93 6.4 43.4
05:10 1016 30 845 24.95 7.3 45.2 93 6.3 43.4
05:15 1016 30 845 24.95 7.3 45.2 93 6.3 43.3
05:20 1016 30 845 24.95 7.4 45.2 93 6.4 43.5
05:25 1016 30 845 24.95 7.4 45.3 94 6.4 43.5
05:30 1016 30 845 24.95 7.3 45.1 94 6.3 43.4
05:35 1016 30 845 24.95 7.3 45.1 94 6.3 43.4
05:40 1016 30 845 24.95 7.2 45 93 6.2 43.2
05:45 1015 29.97 845 24.95 7.2 44.9 93 6.1 43.1
05:50 1016 30 845 24.95 7.2 44.9 93 6.1 43
05:55 1016 30 845 24.95 7.2 44.9 93 6.1 42.9
06:00 1016 30 845 24.95 7.2 44.9 93 6.1 43
06:05 1016 30 845 24.95 7.1 44.9 93 6 42.9
06:10 1016 30 845 24.95 7.1 44.8 93 6.1 42.9
06:15 1016 30 845 24.95 7.2 44.9 93 6.1 42.9
06:20 1016 30 845 24.95 7.2 45 92 6.1 42.9
06:25 1016 30 845 24.95 7.2 45 93 6.1 43
06:30 1016 30 845 24.95 7.3 45.2 93 6.2 43.2
06:35 1016 30 845 24.95 7.4 45.3 93 6.3 43.3
06:40 1016 30 845 24.95 7.4 45.4 92 6.2 43.2
06:45 1016 30 845 24.95 7.5 45.5 92 6.3 43.3
06:50 1016 30 845 24.95 7.6 45.7 92 6.4 43.5
06:55 1016 30 845 24.95 7.7 45.9 92 6.4 43.6
07:00 1016 30 845 24.95 7.7 45.9 90 6.2 43.1
07:05 1016 30 845 24.95 7.8 46.1 90 6.2 43.2
07:10 1016 30 845 24.95 8 46.4 87 6 42.9
07:15 1016 30 845 24.95 8.2 46.8 86 6.1 43
07:20 1016 30 845 24.95 8.4 47 87 6.3 43.3
07:25 1016 30 845 24.95 8.8 47.8 87 6.8 44.2
07:30 1016 30 845 24.95 9.6 49.3 83 6.9 44.4
07:35 1016 30 845 24.95 9.9 49.7 82 6.9 44.4
07:40 1016 30 845 24.95 9.9 49.8 81 6.7 44.1
07:45 1016 30 845 24.95 9.6 49.4 83 6.9 44.4
07:50 1016 30 845 24.95 9.6 49.3 81 6.6 43.9
07:55 1016 30 845 24.95 9.6 49.3 83 6.9 44.3
08:00 1016 30 845 24.95 9.8 49.6 83 7.1 44.8
08:05 1016 30 845 24.95 9.7 49.5 83 6.9 44.5
08:10 1016 30 845 24.95 10 50 81 6.9 44.5
08:15 1016 30 845 24.95 10.2 50.4 80 7 44.5
08:20 1016 30 845 24.95 10.6 51.1 79 7.2 44.9
08:25 1016 30 845 24.95 11.1 52 78 7.4 45.3
08:30 1015 29.97 845 24.95 11.2 52.1 77 7.3 45.2
08:35 1015 29.97 845 24.95 11.9 53.4 72 7.1 44.8
08:40 1015 29.97 845 24.95 12.1 53.8 71 7.1 44.8
08:45 1015 29.97 845 24.95 12 53.7 63 5.2 41.3
08:50 1015 29.97 845 24.95 12.4 54.3 65 6 42.7
08:55 1015 29.97 845 24.95 13 55.5 63 6.1 43
09:00 1015 29.97 845 24.95 13.6 56.4 61 6.2 43.2
09:05 1015 29.97 845 24.95 14 57.1 60 6.4 43.5
09:10 1016 30 845 24.95 14.5 58 57 6.1 42.9
09:15 1016 30 845 24.95 14.3 57.7 60 6.8 44.2
09:20 1016 30 845 24.95 14 57.2 58 6 42.7
09:25 1016 30 845 24.95 14.8 58.6 57 6.3 43.4
09:30 1016 30 845 24.95 15.2 59.3 57 6.7 44.1
09:35 1016 30 845 24.95 14.4 57.9 58 6.3 43.4
09:40 1016 30 845 24.95 14.9 58.8 53 5.5 41.9
09:45 1016 30 845 24.95 15.6 60 54 6.3 43.3
09:50 1016 30 845 24.95 15.6 60.1 53 6.2 43.2
09:55 1016 30 845 24.95 15.7 60.2 53 6.3 43.4
10:00 1016 30 845 24.95 16.2 61.2 50 6 42.8
10:05 1016 30 845 24.95 15.7 60.3 51 5.6 42
10:10 1015 29.97 845 24.95 16.3 61.4 51 6.2 43.1
10:15 1015 29.97 845 24.95 15.9 60.7 50 5.7 42.2
10:20 1015 29.97 845 24.95 16.4 61.5 48 5.3 41.6
10:25 1015 29.97 844 24.92 16.3 61.3 50 6.1 43
10:30 1015 29.97 844 24.92 16.4 61.5 51 6.4 43.5
10:35 1015 29.97 844 24.92 17.1 62.8 43 4.4 39.9
10:40 1015 29.97 844 24.92 17.1 62.8 46 5.6 42.1
10:45 1015 29.97 844 24.92 18 64.4 43 5.2 41.4
10:50 1015 29.97 844 24.92 18.3 64.9 42 5.3 41.5
10:55 1015 29.97 844 24.92 18.9 66 43 6.2 43.2
11:00 1015 29.97 844 24.92 18.6 65.4 43 5.9 42.6
11:05 1015 29.97 844 24.92 18.1 64.6 42 5 41
11:10 1015 29.97 844 24.92 17.8 64 44 5.3 41.6
11:15 1015 29.97 844 24.92 16.9 62.4 48 5.9 42.7
11:20 1015 29.97 844 24.92 16.4 61.4 48 5.3 41.6
11:25 1015 29.97 844 24.92 16.3 61.3 50 5.9 42.7
11:30 1015 29.97 844 24.92 16 60.7 50 5.6 42.1
11:35 1015 29.97 844 24.92 16.3 61.3 48 5.3 41.5
11:40 1015 29.97 844 24.92 16.4 61.6 46 4.8 40.6
11:45 1015 29.97 844 24.92 17.1 62.9 44 5 40.9
11:50 1015 29.97 844 24.92 17.6 63.7 45 5.7 42.2
11:55 1015 29.97 844 24.92 17.6 63.7 44 5.2 41.4
12:00 1015 29.97 844 24.92 17 62.5 45 5 41
12:05 1015 29.97 844 24.92 17.7 63.8 41 4.4 39.9
12:10 1015 29.97 844 24.92 18.1 64.6 41 4.7 40.5
12:15 1014 29.94 844 24.92 18.2 64.7 40 4.5 40.1
12:20 1014 29.94 844 24.92 18.5 65.3 38 4 39.1
12:25 1014 29.94 844 24.92 18.9 66.1 38 4.4 39.9
12:30 1014 29.94 843 24.89 19.3 66.8 34 3.3 37.9
12:35 1014 29.94 843 24.89 19.2 66.6 35 3.6 38.5
12:40 1014 29.94 843 24.89 19.8 67.7 35 3.9 39
12:45 1014 29.94 843 24.89 19.6 67.3 34 3.3 38
12:50 1014 29.94 843 24.89 19.2 66.6 35 3.7 38.7
12:55 1014 29.94 843 24.89 19.2 66.6 33 2.9 37.2
13:00 1014 29.94 843 24.89 20 68 30 2.2 36
13:05 1014 29.94 843 24.89 20.7 69.2 31 3 37.5
13:10 1014 29.94 843 24.89 19.9 67.9 31 2.3 36.2
13:15 1014 29.94 843 24.89 19.8 67.6 30 1.9 35.5
13:20 1014 29.94 843 24.89 19.4 66.9 32 2.3 36.2
13:25 1014 29.94 843 24.89 19.2 66.5 31 1.9 35.4
13:30 1013 29.91 843 24.89 19 66.2 34 2.8 37.1
13:35 1013 29.91 843 24.89 19.3 66.8 31 2 35.5
13:40 1013 29.91 843 24.89 19 66.2 34 2.8 37
13:45 1013 29.91 843 24.89 19.2 66.6 31 1.9 35.3
13:50 1013 29.91 843 24.89 18.9 66 32 1.8 35.3
13:55 1013 29.91 843 24.89 18.9 66 32 1.9 35.4
14:00 1013 29.91 843 24.89 19 66.1 34 3 37.4
14:05 1013 29.91 843 24.89 18.9 66 33 2.5 36.4
14:10 1013 29.91 843 24.89 18.4 65.1 33 2 35.6
14:15 1013 29.91 843 24.89 18.4 65 37 3.6 38.6
14:20 1013 29.91 843 24.89 18.6 65.4 38 4 39.1
14:25 1013 29.91 842 24.86 18.5 65.3 38 4.2 39.6
14:30 1013 29.91 843 24.89 18.2 64.8 39 4.2 39.6
14:35 1013 29.91 842 24.86 18.6 65.4 39 4.3 39.8
14:40 1013 29.91 842 24.86 18.9 65.9 39 4.7 40.4
14:45 1013 29.91 842 24.86 19.3 66.7 38 4.9 40.8
14:50 1013 29.91 842 24.86 19.3 66.8 37 4.6 40.3
14:55 1013 29.91 842 24.86 19.6 67.3 35 3.9 39
15:00 1013 29.91 842 24.86 19.5 67.1 37 4.6 40.3
15:05 1013 29.91 842 24.86 19.7 67.5 35 3.9 38.9
15:10 1013 29.91 842 24.86 20.2 68.4 34 4.1 39.4
15:15 1013 29.91 842 24.86 20.5 68.8 31 3.1 37.6
15:20 1013 29.91 842 24.86 20.3 68.6 33 3.5 38.3
15:25 1013 29.91 842 24.86 20 68.1 35 4.3 39.7
15:30 1013 29.91 842 24.86 20 68.1 36 4.7 40.4
15:35 1012 29.88 842 24.86 19.9 67.8 38 5.4 41.7
15:40 1012 29.88 842 24.86 19.6 67.2 39 5.3 41.6
15:45 1012 29.88 842 24.86 19.6 67.3 40 5.6 42.1
15:50 1012 29.88 842 24.86 19.4 66.8 40 5.5 41.9
15:55 1012 29.88 842 24.86 19 66.2 41 5.6 42.1
16:00 1012 29.88 842 24.86 18.6 65.4 43 6 42.8
16:05 1013 29.91 842 24.86 18.6 65.4 44 6.2 43.1
16:10 1013 29.91 842 24.86 18.4 65 46 6.7 44
16:15 1013 29.91 842 24.86 18 64.4 45 5.9 42.7
16:20 1013 29.91 842 24.86 17.7 63.8 47 6.4 43.6
16:25 1013 29.91 842 24.86 17.6 63.7 48 6.5 43.7
16:30 1013 29.91 842 24.86 17.9 64.1 47 6.6 43.9
16:35 1013 29.91 842 24.86 17.9 64.3 48 7 44.6
16:40 1013 29.91 842 24.86 17.8 64 48 6.7 44.1
16:45 1013 29.91 842 24.86 17.8 64.1 49 7.1 44.8
16:50 1012 29.88 842 24.86 17.7 63.8 54 8.5 47.3
16:55 1012 29.88 842 24.86 17.7 63.9 52 7.8 46.1
17:00 1012 29.88 842 24.86 17.7 63.9 52 7.9 46.2
17:05 1012 29.88 841 24.83 17.9 64.3 46 6.3 43.3
17:10 1012 29.88 841 24.83 18.1 64.7 48 7 44.5
17:15 1012 29.88 841 24.83 18.4 65.2 45 6.3 43.3
17:20 1012 29.88 841 24.83 18.3 65 44 6 42.9
17:25 1012 29.88 841 24.83 18.1 64.6 44 5.7 42.2
17:30 1012 29.88 841 24.83 18 64.5 45 6.1 43
17:35 1012 29.88 841 24.83 18.1 64.5 44 5.7 42.3
17:40 1012 29.88 841 24.83 18.1 64.5 44 5.6 42.1
17:45 1012 29.88 841 24.83 18.1 64.6 45 6.3 43.3
17:50 1012 29.88 841 24.83 18 64.4 41 4.8 40.6
17:55 1012 29.88 841 24.83 17.9 64.3 42 5.1 41.1
18:00 1012 29.88 841 24.83 17.7 63.9 42 4.8 40.7
18:05 1012 29.88 841 24.83 17.7 63.8 46 6.1 43
18:10 1012 29.88 841 24.83 17.5 63.5 43 4.8 40.7
18:15 1011 29.85 841 24.83 17.5 63.6 45 5.7 42.2
18:20 1012 29.88 841 24.83 17.6 63.7 41 4.5 40
18:25 1012 29.88 841 24.83 17.7 63.9 42 4.9 40.8
18:30 1011 29.85 841 24.83 17.6 63.7 41 4.5 40
18:35 1011 29.85 841 24.83 17.7 63.8 44 5.4 41.7
18:40 1011 29.85 841 24.83 17.6 63.6 44 5.2 41.3
18:45 1011 29.85 840 24.81 17.5 63.6 43 5 40.9
18:50 1011 29.85 840 24.81 17.6 63.6 45 5.5 42
18:55 1011 29.85 840 24.81 17.6 63.6 42 4.8 40.6
19:00 1011 29.85 840 24.81 17.6 63.6 45 5.7 42.2
19:05 1011 29.85 840 24.81 17.5 63.4 45 5.6 42
19:10 1011 29.85 841 24.83 17.5 63.4 46 5.8 42.4
19:15 1011 29.85 841 24.83 17.3 63.2 43 4.8 40.6
19:20 1011 29.85 840 24.81 17.5 63.4 42 4.5 40.2
19:25 1011 29.85 840 24.81 17.3 63.2 45 5.3 41.5
19:30 1011 29.85 840 24.81 17.1 62.9 44 4.8 40.7
19:35 1011 29.85 840 24.81 17.2 62.9 46 5.6 42.1
19:40 1011 29.85 840 24.81 17 62.5 45 5.2 41.4
19:45 1011 29.85 840 24.81 17.1 62.9 46 5.4 41.8
19:50 1011 29.85 840 24.81 17.3 63.1 45 5.5 41.8
19:55 1011 29.85 840 24.81 17.2 63 46 5.7 42.3
20:00 1011 29.85 840 24.81 17.2 63 46 5.7 42.2
20:05 1011 29.85 840 24.81 17.2 62.9 47 5.9 42.7
20:10 1011 29.85 840 24.81 17.2 63 50 6.8 44.2
20:15 1011 29.85 840 24.81 17.1 62.9 51 6.9 44.4
20:20 1011 29.85 840 24.81 17 62.6 49 6.4 43.5
20:25 1011 29.85 840 24.81 16.9 62.3 52 7.1 44.9
20:30 1011 29.85 840 24.81 16.7 62.1 52 7 44.5
20:35 1011 29.85 840 24.81 16.6 61.9 55 7.6 45.7
20:40 1011 29.85 840 24.81 16.4 61.5 54 7.1 44.8
20:45 1011 29.85 840 24.81 16.3 61.3 54 6.9 44.5
20:50 1011 29.85 840 24.81 16.2 61.1 54 6.9 44.5
20:55 1011 29.85 840 24.81 16.1 61 56 7.3 45.2
21:00 1011 29.85 840 24.81 16.1 60.9 58 7.8 46
21:05 1011 29.85 840 24.81 15.9 60.7 55 7 44.5
21:10 1011 29.85 840 24.81 15.9 60.7 57 7.6 45.7
21:15 1011 29.85 840 24.81 15.9 60.7 54 6.8 44.3
21:20 1011 29.85 840 24.81 15.9 60.7 56 7.4 45.3
21:25 1011 29.85 840 24.81 15.9 60.6 60 8.2 46.8
21:30 1011 29.85 840 24.81 15.7 60.3 61 8.4 47
21:35 1011 29.85 840 24.81 15.6 60.1 60 8 46.4
21:40 1011 29.85 840 24.81 15.5 59.9 60 7.9 46.2
21:45 1011 29.85 840 24.81 15.4 59.8 62 8.3 47
21:50 1011 29.85 840 24.81 15.3 59.5 63 8.3 47
21:55 1011 29.85 840 24.81 15.2 59.3 61 7.8 46.1
22:00 1011 29.85 840 24.81 15.2 59.4 59 7.3 45.1
22:05 1011 29.85 840 24.81 15.1 59.1 61 7.8 46
22:10 1011 29.85 840 24.81 14.9 58.8 62 7.7 45.9
22:15 1011 29.85 840 24.81 14.8 58.6 62 7.7 45.8
22:20 1011 29.85 840 24.81 14.7 58.4 63 7.7 45.8
22:25 1011 29.85 840 24.81 14.6 58.2 62 7.5 45.4
22:30 1011 29.85 840 24.81 14.5 58.2 63 7.7 45.9
22:35 1011 29.85 840 24.81 14.5 58.1 64 7.8 46
22:40 1011 29.85 840 24.81 14.5 58 64 7.8 46.1
22:45 1011 29.85 840 24.81 14.5 58.2 65 8.2 46.8
22:50 1011 29.85 840 24.81 14.4 58 66 8.1 46.7
22:55 1011 29.85 840 24.81 14.3 57.7 68 8.4 47.1
23:00 1011 29.85 840 24.81 14.1 57.4 70 8.7 47.6
23:05 1010 29.83 840 24.81 13.8 56.9 73 9.2 48.5
23:10 1010 29.83 840 24.81 13.5 56.3 72 8.7 47.6
23:15 1010 29.83 840 24.81 13.4 56.2 72 8.5 47.2
23:20 1010 29.83 840 24.81 13.5 56.2 72 8.6 47.4
23:25 1010 29.83 840 24.81 13.5 56.2 72 8.5 47.3
23:30 1010 29.83 839 24.78 13.5 56.2 70 8.2 46.8
23:35 1010 29.83 839 24.78 13.5 56.3 71 8.4 47.2
23:40 1010 29.83 839 24.78 13.4 56.2 72 8.6 47.5
23:45 1010 29.83 839 24.78 13.3 56 72 8.5 47.4
23:50 1010 29.83 839 24.78 13.3 55.9 74 8.8 47.8
23:55 1010 29.83 839 24.78 13.2 55.8 74 8.6 47.6
24:00 1010 29.83 839 24.78 13.2 55.8 73 8.5 47.4